sensor_id;sensor_type;location;lat;lon;timestamp;P1;durP1;ratioP1;P2;durP2;ratioP2
29984;SDS011;17387;42.690;23.328;2023-04-08T13:32:49;14.80;;;10.20;;
29984;SDS011;17387;42.690;23.328;2023-04-08T13:35:14;20.45;;;12.52;;
29984;SDS011;17387;42.690;23.328;2023-04-08T13:37:40;27.30;;;16.30;;
29984;SDS011;17387;42.690;23.328;2023-04-08T13:40:06;15.98;;;11.73;;
29984;SDS011;17387;42.690;23.328;2023-04-08T13:42:32;16.85;;;12.30;;
29984;SDS011;17387;42.690;23.328;2023-04-08T13:44:58;14.85;;;10.32;;
29984;SDS011;17387;42.690;23.328;2023-04-08T13:47:23;17.58;;;12.65;;
29984;SDS011;17387;42.690;23.328;2023-04-08T13:49:48;14.52;;;10.68;;
29984;SDS011;17387;42.690;23.328;2023-04-08T13:52:14;18.88;;;12.00;;
29984;SDS011;17387;42.690;23.328;2023-04-08T13:54:39;19.63;;;11.98;;
29984;SDS011;17387;42.690;23.328;2023-04-08T13:57:05;17.92;;;11.63;;
29984;SDS011;17387;42.690;23.328;2023-04-08T13:59:30;29.75;;;19.05;;
29984;SDS011;17387;42.690;23.328;2023-04-08T14:01:55;24.85;;;16.45;;
29984;SDS011;17387;42.690;23.328;2023-04-08T14:04:21;20.88;;;13.95;;
29984;SDS011;17387;42.690;23.328;2023-04-08T14:06:47;23.10;;;14.05;;
29984;SDS011;17387;42.690;23.328;2023-04-08T14:09:14;21.67;;;13.27;;
29984;SDS011;17387;42.690;23.328;2023-04-08T14:11:39;28.75;;;16.90;;
29984;SDS011;17387;42.690;23.328;2023-04-08T14:14:05;15.63;;;11.57;;
29984;SDS011;17387;42.690;23.328;2023-04-08T14:16:30;21.48;;;15.57;;
29984;SDS011;17387;42.690;23.328;2023-04-08T14:18:56;29.30;;;18.05;;
29984;SDS011;17387;42.690;23.328;2023-04-08T14:21:22;25.60;;;15.13;;
29984;SDS011;17387;42.690;23.328;2023-04-08T14:23:47;20.00;;;13.38;;
29984;SDS011;17387;42.690;23.328;2023-04-08T14:26:12;19.30;;;12.33;;
29984;SDS011;17387;42.690;23.328;2023-04-08T14:28:38;14.88;;;12.13;;
29984;SDS011;17387;42.690;23.328;2023-04-08T14:31:03;15.75;;;11.90;;
29984;SDS011;17387;42.690;23.328;2023-04-08T14:33:28;19.10;;;11.88;;
29984;SDS011;17387;42.690;23.328;2023-04-08T14:35:54;17.33;;;12.10;;
29984;SDS011;17387;42.690;23.328;2023-04-08T14:38:19;17.40;;;11.32;;
29984;SDS011;17387;42.690;23.328;2023-04-08T14:40:45;19.08;;;13.38;;
29984;SDS011;17387;42.690;23.328;2023-04-08T14:43:10;20.02;;;14.18;;
29984;SDS011;17387;42.690;23.328;2023-04-08T14:45:37;17.23;;;12.77;;
29984;SDS011;17387;42.690;23.328;2023-04-08T14:48:02;22.85;;;15.75;;
29984;SDS011;17387;42.690;23.328;2023-04-08T14:50:28;17.50;;;12.77;;
29984;SDS011;17387;42.690;23.328;2023-04-08T14:52:54;36.60;;;20.23;;
29984;SDS011;17387;42.690;23.328;2023-04-08T14:55:19;23.10;;;15.60;;
29984;SDS011;17387;42.690;23.328;2023-04-08T14:57:46;23.55;;;15.98;;
29984;SDS011;17387;42.690;23.328;2023-04-08T15:00:11;19.27;;;12.73;;
29984;SDS011;17387;42.690;23.328;2023-04-08T15:02:37;29.27;;;16.13;;
29984;SDS011;17387;42.690;23.328;2023-04-08T15:05:02;18.45;;;12.55;;
29984;SDS011;17387;42.690;23.328;2023-04-08T15:07:27;21.60;;;14.00;;
29984;SDS011;17387;42.690;23.328;2023-04-08T15:09:53;22.00;;;14.70;;
29984;SDS011;17387;42.690;23.328;2023-04-08T15:12:18;21.55;;;13.57;;
29984;SDS011;17387;42.690;23.328;2023-04-08T15:14:43;20.77;;;13.52;;
29984;SDS011;17387;42.690;23.328;2023-04-08T15:17:08;17.35;;;11.35;;
29984;SDS011;17387;42.690;23.328;2023-04-08T15:19:34;19.98;;;12.50;;
29984;SDS011;17387;42.690;23.328;2023-04-08T15:21:59;20.30;;;13.35;;
29984;SDS011;17387;42.690;23.328;2023-04-08T15:24:25;26.58;;;16.67;;
29984;SDS011;17387;42.690;23.328;2023-04-08T15:26:50;16.60;;;12.27;;
29984;SDS011;17387;42.690;23.328;2023-04-08T15:29:16;21.55;;;13.73;;
29984;SDS011;17387;42.690;23.328;2023-04-08T15:31:41;19.58;;;13.63;;
29984;SDS011;17387;42.690;23.328;2023-04-08T15:34:06;28.00;;;19.25;;
29984;SDS011;17387;42.690;23.328;2023-04-08T15:36:32;22.05;;;15.00;;
29984;SDS011;17387;42.690;23.328;2023-04-08T15:38:59;25.20;;;15.52;;
29984;SDS011;17387;42.690;23.328;2023-04-08T15:41:25;29.02;;;18.92;;
29984;SDS011;17387;42.690;23.328;2023-04-08T15:43:51;15.50;;;11.75;;
29984;SDS011;17387;42.690;23.328;2023-04-08T15:46:17;25.70;;;15.73;;
29984;SDS011;17387;42.690;23.328;2023-04-08T15:48:42;27.05;;;16.55;;
29984;SDS011;17387;42.690;23.328;2023-04-08T15:51:08;28.60;;;17.80;;
29984;SDS011;17387;42.690;23.328;2023-04-08T15:53:33;20.10;;;13.07;;
29984;SDS011;17387;42.690;23.328;2023-04-08T15:55:59;22.40;;;14.90;;
29984;SDS011;17387;42.690;23.328;2023-04-08T15:58:25;25.17;;;17.20;;
29984;SDS011;17387;42.690;23.328;2023-04-08T16:00:50;25.20;;;18.13;;
29984;SDS011;17387;42.690;23.328;2023-04-08T16:03:16;19.40;;;13.60;;
29984;SDS011;17387;42.690;23.328;2023-04-08T16:05:41;20.30;;;13.90;;
29984;SDS011;17387;42.690;23.328;2023-04-08T16:08:07;18.10;;;12.35;;
29984;SDS011;17387;42.690;23.328;2023-04-08T16:10:32;21.08;;;14.15;;
29984;SDS011;17387;42.690;23.328;2023-04-08T16:12:58;22.98;;;15.45;;
29984;SDS011;17387;42.690;23.328;2023-04-08T16:15:23;23.13;;;15.50;;
29984;SDS011;17387;42.690;23.328;2023-04-08T16:17:49;24.55;;;16.20;;
29984;SDS011;17387;42.690;23.328;2023-04-08T16:20:15;20.60;;;14.48;;
29984;SDS011;17387;42.690;23.328;2023-04-08T16:22:40;27.08;;;16.40;;
29984;SDS011;17387;42.690;23.328;2023-04-08T16:25:06;27.83;;;17.38;;
29984;SDS011;17387;42.690;23.328;2023-04-08T16:27:31;33.88;;;21.00;;
29984;SDS011;17387;42.690;23.328;2023-04-08T16:29:56;32.40;;;21.52;;
29984;SDS011;17387;42.690;23.328;2023-04-08T16:32:22;24.75;;;17.67;;
29984;SDS011;17387;42.690;23.328;2023-04-08T16:34:47;19.35;;;14.13;;
29984;SDS011;17387;42.690;23.328;2023-04-08T16:37:12;28.42;;;16.70;;
29984;SDS011;17387;42.690;23.328;2023-04-08T16:39:38;28.17;;;17.10;;
29984;SDS011;17387;42.690;23.328;2023-04-08T16:42:03;39.78;;;23.45;;
29984;SDS011;17387;42.690;23.328;2023-04-08T16:44:28;39.22;;;24.40;;
29984;SDS011;17387;42.690;23.328;2023-04-08T16:46:56;33.33;;;20.35;;
29984;SDS011;17387;42.690;23.328;2023-04-08T16:49:21;18.75;;;13.75;;
29984;SDS011;17387;42.690;23.328;2023-04-08T16:51:47;27.58;;;18.38;;
29984;SDS011;17387;42.690;23.328;2023-04-08T16:54:12;30.10;;;20.42;;
29984;SDS011;17387;42.690;23.328;2023-04-08T16:56:38;33.38;;;22.00;;
29984;SDS011;17387;42.690;23.328;2023-04-08T16:59:08;33.20;;;22.42;;
29984;SDS011;17387;42.690;23.328;2023-04-08T17:01:33;57.85;;;38.83;;
29984;SDS011;17387;42.690;23.328;2023-04-08T17:03:58;54.03;;;35.30;;
29984;SDS011;17387;42.690;23.328;2023-04-08T17:06:23;34.83;;;22.75;;
29984;SDS011;17387;42.690;23.328;2023-04-08T17:08:49;32.67;;;21.90;;
29984;SDS011;17387;42.690;23.328;2023-04-08T17:11:14;25.20;;;17.70;;
29984;SDS011;17387;42.690;23.328;2023-04-08T17:13:40;30.67;;;20.67;;
29984;SDS011;17387;42.690;23.328;2023-04-08T17:16:09;28.48;;;19.00;;
29984;SDS011;17387;42.690;23.328;2023-04-08T17:18:35;26.60;;;18.27;;
29984;SDS011;17387;42.690;23.328;2023-04-08T17:21:00;30.05;;;19.88;;
29984;SDS011;17387;42.690;23.328;2023-04-08T17:23:28;30.63;;;20.02;;
29984;SDS011;17387;42.690;23.328;2023-04-08T17:25:54;31.10;;;20.13;;
29984;SDS011;17387;42.690;23.328;2023-04-08T17:28:19;28.08;;;19.33;;
29984;SDS011;17387;42.690;23.328;2023-04-08T17:30:45;30.75;;;20.63;;
29984;SDS011;17387;42.690;23.328;2023-04-08T17:33:10;34.88;;;22.92;;
29984;SDS011;17387;42.690;23.328;2023-04-08T17:35:36;36.38;;;22.17;;
29984;SDS011;17387;42.690;23.328;2023-04-08T17:38:01;36.17;;;22.10;;
29984;SDS011;17387;42.690;23.328;2023-04-08T17:40:27;29.88;;;20.35;;
29984;SDS011;17387;42.690;23.328;2023-04-08T17:42:53;29.52;;;20.73;;
29984;SDS011;17387;42.690;23.328;2023-04-08T17:45:18;31.70;;;21.02;;
29984;SDS011;17387;42.690;23.328;2023-04-08T17:47:43;31.77;;;21.23;;
29984;SDS011;17387;42.690;23.328;2023-04-08T17:50:08;35.13;;;22.83;;
29984;SDS011;17387;42.690;23.328;2023-04-08T17:52:34;46.38;;;29.55;;
29984;SDS011;17387;42.690;23.328;2023-04-08T17:54:59;36.38;;;22.98;;
29984;SDS011;17387;42.690;23.328;2023-04-08T17:57:24;28.95;;;19.55;;
29984;SDS011;17387;42.690;23.328;2023-04-08T17:59:50;35.72;;;22.60;;
29984;SDS011;17387;42.690;23.328;2023-04-08T18:02:15;32.33;;;21.65;;
29984;SDS011;17387;42.690;23.328;2023-04-08T18:04:40;37.38;;;23.13;;
29984;SDS011;17387;42.690;23.328;2023-04-08T18:07:06;33.47;;;23.83;;
29984;SDS011;17387;42.690;23.328;2023-04-08T18:09:32;34.35;;;23.02;;
29984;SDS011;17387;42.690;23.328;2023-04-08T18:11:57;38.45;;;25.75;;
29984;SDS011;17387;42.690;23.328;2023-04-08T18:14:22;30.55;;;21.83;;
29984;SDS011;17387;42.690;23.328;2023-04-08T18:16:47;31.13;;;21.77;;
29984;SDS011;17387;42.690;23.328;2023-04-08T18:19:13;35.85;;;23.42;;
29984;SDS011;17387;42.690;23.328;2023-04-08T18:21:38;36.60;;;24.02;;
29984;SDS011;17387;42.690;23.328;2023-04-08T18:24:03;36.58;;;24.15;;
29984;SDS011;17387;42.690;23.328;2023-04-08T18:26:29;36.03;;;23.98;;
29984;SDS011;17387;42.690;23.328;2023-04-08T18:28:55;31.13;;;21.75;;
29984;SDS011;17387;42.690;23.328;2023-04-08T18:31:20;34.78;;;22.77;;
29984;SDS011;17387;42.690;23.328;2023-04-08T18:33:48;37.88;;;25.05;;
29984;SDS011;17387;42.690;23.328;2023-04-08T18:36:13;38.08;;;24.52;;
29984;SDS011;17387;42.690;23.328;2023-04-08T18:38:38;38.30;;;25.60;;
29984;SDS011;17387;42.690;23.328;2023-04-08T18:41:05;35.97;;;23.77;;
29984;SDS011;17387;42.690;23.328;2023-04-08T18:43:30;38.13;;;24.70;;
29984;SDS011;17387;42.690;23.328;2023-04-08T18:45:56;36.22;;;24.40;;
29984;SDS011;17387;42.690;23.328;2023-04-08T18:48:21;34.80;;;24.27;;
29984;SDS011;17387;42.690;23.328;2023-04-08T18:50:47;39.50;;;26.15;;
29984;SDS011;17387;42.690;23.328;2023-04-08T18:53:12;38.22;;;25.83;;
29984;SDS011;17387;42.690;23.328;2023-04-08T18:55:38;40.33;;;26.55;;
29984;SDS011;17387;42.690;23.328;2023-04-08T18:58:03;37.80;;;25.95;;
29984;SDS011;17387;42.690;23.328;2023-04-08T19:00:29;38.00;;;25.83;;
29984;SDS011;17387;42.690;23.328;2023-04-08T19:02:57;45.78;;;26.35;;
29984;SDS011;17387;42.690;23.328;2023-04-08T19:05:22;39.08;;;25.85;;
29984;SDS011;17387;42.690;23.328;2023-04-08T19:07:48;40.70;;;26.05;;
29984;SDS011;17387;42.690;23.328;2023-04-08T19:10:13;31.90;;;22.15;;
29984;SDS011;17387;42.690;23.328;2023-04-08T19:12:38;35.95;;;23.63;;
29984;SDS011;17387;42.690;23.328;2023-04-08T19:15:04;33.15;;;22.60;;
29984;SDS011;17387;42.690;23.328;2023-04-08T19:17:31;33.92;;;22.95;;
29984;SDS011;17387;42.690;23.328;2023-04-08T19:19:57;36.65;;;24.33;;
29984;SDS011;17387;42.690;23.328;2023-04-08T19:22:22;41.75;;;26.67;;
29984;SDS011;17387;42.690;23.328;2023-04-08T19:24:49;44.17;;;28.48;;
29984;SDS011;17387;42.690;23.328;2023-04-08T19:27:14;40.85;;;27.58;;
29984;SDS011;17387;42.690;23.328;2023-04-08T19:29:39;40.88;;;27.58;;
29984;SDS011;17387;42.690;23.328;2023-04-08T19:32:05;45.88;;;28.38;;
29984;SDS011;17387;42.690;23.328;2023-04-08T19:34:30;45.88;;;29.60;;
29984;SDS011;17387;42.690;23.328;2023-04-08T19:36:55;48.95;;;30.98;;
29984;SDS011;17387;42.690;23.328;2023-04-08T19:39:22;47.53;;;30.95;;
29984;SDS011;17387;42.690;23.328;2023-04-08T19:41:47;51.38;;;32.83;;
29984;SDS011;17387;42.690;23.328;2023-04-08T19:44:12;45.55;;;30.27;;
29984;SDS011;17387;42.690;23.328;2023-04-08T19:46:37;44.83;;;28.60;;
29984;SDS011;17387;42.690;23.328;2023-04-08T19:49:03;46.60;;;30.35;;
29984;SDS011;17387;42.690;23.328;2023-04-08T19:51:28;45.60;;;30.80;;
29984;SDS011;17387;42.690;23.328;2023-04-08T19:53:55;47.65;;;32.03;;
29984;SDS011;17387;42.690;23.328;2023-04-08T19:56:20;53.92;;;33.28;;
29984;SDS011;17387;42.690;23.328;2023-04-08T19:58:46;47.05;;;31.08;;
29984;SDS011;17387;42.690;23.328;2023-04-08T20:01:12;42.38;;;28.33;;
29984;SDS011;17387;42.690;23.328;2023-04-08T20:03:38;42.78;;;28.85;;
29984;SDS011;17387;42.690;23.328;2023-04-08T20:06:04;43.67;;;29.10;;
29984;SDS011;17387;42.690;23.328;2023-04-08T20:08:31;33.22;;;21.05;;
29984;SDS011;17387;42.690;23.328;2023-04-08T20:10:58;35.60;;;22.98;;
29984;SDS011;17387;42.690;23.328;2023-04-08T20:13:23;36.97;;;24.10;;
29984;SDS011;17387;42.690;23.328;2023-04-08T20:15:49;37.60;;;25.98;;
29984;SDS011;17387;42.690;23.328;2023-04-08T20:18:16;44.25;;;29.13;;
29984;SDS011;17387;42.690;23.328;2023-04-08T20:20:41;40.85;;;26.73;;
29984;SDS011;17387;42.690;23.328;2023-04-08T20:23:07;35.95;;;23.85;;
29984;SDS011;17387;42.690;23.328;2023-04-08T20:25:32;34.35;;;23.88;;
29984;SDS011;17387;42.690;23.328;2023-04-08T20:27:58;33.50;;;23.95;;
29984;SDS011;17387;42.690;23.328;2023-04-08T20:30:23;36.97;;;25.70;;
29984;SDS011;17387;42.690;23.328;2023-04-08T20:32:48;36.42;;;24.58;;
29984;SDS011;17387;42.690;23.328;2023-04-08T20:35:13;36.45;;;24.88;;
29984;SDS011;17387;42.690;23.328;2023-04-08T20:37:39;43.80;;;28.10;;
29984;SDS011;17387;42.690;23.328;2023-04-08T20:40:05;36.28;;;24.75;;
29984;SDS011;17387;42.690;23.328;2023-04-08T20:42:31;35.40;;;24.67;;
29984;SDS011;17387;42.690;23.328;2023-04-08T20:44:56;38.50;;;25.58;;
29984;SDS011;17387;42.690;23.328;2023-04-08T20:47:21;36.15;;;25.10;;
29984;SDS011;17387;42.690;23.328;2023-04-08T20:49:47;38.17;;;24.85;;
29984;SDS011;17387;42.690;23.328;2023-04-08T20:52:13;35.42;;;24.63;;
29984;SDS011;17387;42.690;23.328;2023-04-08T20:54:39;37.00;;;25.15;;
29984;SDS011;17387;42.690;23.328;2023-04-08T20:57:04;41.63;;;27.75;;
29984;SDS011;17387;42.690;23.328;2023-04-08T20:59:29;42.35;;;29.10;;
29984;SDS011;17387;42.690;23.328;2023-04-08T21:01:55;48.97;;;32.58;;
29984;SDS011;17387;42.690;23.328;2023-04-08T21:04:21;48.97;;;33.13;;
29984;SDS011;17387;42.690;23.328;2023-04-08T21:06:48;43.15;;;28.10;;
29984;SDS011;17387;42.690;23.328;2023-04-08T21:09:13;40.97;;;27.20;;
29984;SDS011;17387;42.690;23.328;2023-04-08T21:11:39;41.00;;;26.05;;
29984;SDS011;17387;42.690;23.328;2023-04-08T21:14:05;33.97;;;23.38;;
29984;SDS011;17387;42.690;23.328;2023-04-08T21:16:30;39.22;;;26.63;;
29984;SDS011;17387;42.690;23.328;2023-04-08T21:18:55;36.30;;;24.50;;
29984;SDS011;17387;42.690;23.328;2023-04-08T21:21:23;40.83;;;26.60;;
29984;SDS011;17387;42.690;23.328;2023-04-08T21:23:51;34.35;;;23.65;;
29984;SDS011;17387;42.690;23.328;2023-04-08T21:26:17;39.25;;;25.13;;
29984;SDS011;17387;42.690;23.328;2023-04-08T21:28:42;33.78;;;23.35;;
29984;SDS011;17387;42.690;23.328;2023-04-08T21:31:11;33.78;;;23.13;;
29984;SDS011;17387;42.690;23.328;2023-04-08T21:33:37;34.83;;;23.85;;
29984;SDS011;17387;42.690;23.328;2023-04-08T21:36:02;36.92;;;24.63;;
29984;SDS011;17387;42.690;23.328;2023-04-08T21:38:28;36.45;;;24.45;;
29984;SDS011;17387;42.690;23.328;2023-04-08T21:40:53;37.13;;;23.92;;
29984;SDS011;17387;42.690;23.328;2023-04-08T21:43:18;39.38;;;24.80;;
29984;SDS011;17387;42.690;23.328;2023-04-08T21:45:43;36.35;;;23.67;;
29984;SDS011;17387;42.690;23.328;2023-04-08T21:48:09;38.45;;;26.15;;
29984;SDS011;17387;42.690;23.328;2023-04-08T21:50:35;35.05;;;24.05;;
29984;SDS011;17387;42.690;23.328;2023-04-08T21:53:01;34.30;;;24.00;;
29984;SDS011;17387;42.690;23.328;2023-04-08T21:55:26;33.97;;;24.05;;
29984;SDS011;17387;42.690;23.328;2023-04-08T21:57:53;30.05;;;20.95;;
29984;SDS011;17387;42.690;23.328;2023-04-08T22:00:18;33.05;;;22.83;;
29984;SDS011;17387;42.690;23.328;2023-04-08T22:02:43;32.97;;;23.17;;
29984;SDS011;17387;42.690;23.328;2023-04-08T22:05:09;35.78;;;23.30;;
29984;SDS011;17387;42.690;23.328;2023-04-08T22:07:35;40.58;;;26.48;;
29984;SDS011;17387;42.690;23.328;2023-04-08T22:10:00;34.50;;;22.42;;
29984;SDS011;17387;42.690;23.328;2023-04-08T22:12:26;34.28;;;21.95;;
29984;SDS011;17387;42.690;23.328;2023-04-08T22:14:51;33.17;;;21.48;;
29984;SDS011;17387;42.690;23.328;2023-04-08T22:17:16;31.17;;;21.52;;
29984;SDS011;17387;42.690;23.328;2023-04-08T22:19:42;30.02;;;20.23;;
29984;SDS011;17387;42.690;23.328;2023-04-08T22:22:07;33.83;;;22.95;;
29984;SDS011;17387;42.690;23.328;2023-04-08T22:24:32;35.67;;;22.20;;
29984;SDS011;17387;42.690;23.328;2023-04-08T22:26:57;33.33;;;21.98;;
29984;SDS011;17387;42.690;23.328;2023-04-08T22:29:23;34.72;;;22.98;;
29984;SDS011;17387;42.690;23.328;2023-04-08T22:31:48;37.00;;;23.90;;
29984;SDS011;17387;42.690;23.328;2023-04-08T22:34:13;36.40;;;23.80;;
29984;SDS011;17387;42.690;23.328;2023-04-08T22:36:39;33.78;;;22.83;;
29984;SDS011;17387;42.690;23.328;2023-04-08T22:39:04;35.85;;;23.10;;
29984;SDS011;17387;42.690;23.328;2023-04-08T22:41:29;31.95;;;20.67;;
29984;SDS011;17387;42.690;23.328;2023-04-08T22:43:55;31.10;;;21.27;;
29984;SDS011;17387;42.690;23.328;2023-04-08T22:46:20;33.08;;;21.77;;
29984;SDS011;17387;42.690;23.328;2023-04-08T22:48:45;31.55;;;21.42;;
29984;SDS011;17387;42.690;23.328;2023-04-08T22:51:11;29.00;;;20.95;;
29984;SDS011;17387;42.690;23.328;2023-04-08T22:53:37;34.35;;;22.35;;
29984;SDS011;17387;42.690;23.328;2023-04-08T22:56:02;32.17;;;21.55;;
29984;SDS011;17387;42.690;23.328;2023-04-08T22:58:28;31.52;;;21.33;;
29984;SDS011;17387;42.690;23.328;2023-04-08T23:00:53;31.17;;;21.17;;
29984;SDS011;17387;42.690;23.328;2023-04-08T23:03:18;33.85;;;21.90;;
29984;SDS011;17387;42.690;23.328;2023-04-08T23:05:44;34.42;;;22.67;;
29984;SDS011;17387;42.690;23.328;2023-04-08T23:08:09;33.78;;;23.00;;
29984;SDS011;17387;42.690;23.328;2023-04-08T23:10:35;35.85;;;23.33;;
29984;SDS011;17387;42.690;23.328;2023-04-08T23:13:00;34.05;;;23.00;;
29984;SDS011;17387;42.690;23.328;2023-04-08T23:15:25;34.08;;;23.60;;
29984;SDS011;17387;42.690;23.328;2023-04-08T23:17:51;35.75;;;23.10;;
29984;SDS011;17387;42.690;23.328;2023-04-08T23:20:16;32.30;;;23.02;;
29984;SDS011;17387;42.690;23.328;2023-04-08T23:22:41;35.35;;;23.13;;
29984;SDS011;17387;42.690;23.328;2023-04-08T23:25:07;37.10;;;23.10;;
29984;SDS011;17387;42.690;23.328;2023-04-08T23:27:32;36.70;;;23.10;;
29984;SDS011;17387;42.690;23.328;2023-04-08T23:29:58;32.03;;;21.48;;
29984;SDS011;17387;42.690;23.328;2023-04-08T23:32:29;30.73;;;20.95;;
29984;SDS011;17387;42.690;23.328;2023-04-08T23:34:54;33.72;;;21.42;;
29984;SDS011;17387;42.690;23.328;2023-04-08T23:37:20;31.10;;;19.80;;
29984;SDS011;17387;42.690;23.328;2023-04-08T23:39:45;30.60;;;20.50;;
29984;SDS011;17387;42.690;23.328;2023-04-08T23:42:10;29.73;;;19.90;;
29984;SDS011;17387;42.690;23.328;2023-04-08T23:44:35;27.80;;;19.15;;
29984;SDS011;17387;42.690;23.328;2023-04-08T23:47:01;28.23;;;18.55;;
29984;SDS011;17387;42.690;23.328;2023-04-08T23:49:26;25.80;;;17.90;;
29984;SDS011;17387;42.690;23.328;2023-04-08T23:51:51;27.45;;;18.50;;
29984;SDS011;17387;42.690;23.328;2023-04-08T23:54:17;25.90;;;17.95;;
29984;SDS011;17387;42.690;23.328;2023-04-08T23:56:42;28.73;;;19.02;;
29984;SDS011;17387;42.690;23.328;2023-04-08T23:59:08;27.38;;;18.60;;
